Time;durP1;ratioP1;P1;durP2;ratioP2;P2;SDS_P1;SDS_P2;PMS_P1;PMS_P2;Temp;Humidity;BMP_temperature;BMP_pressure;BME280_temperature;BME280_humidity;BME280_pressure;Samples;Min_cycle;Max_cycle;Signal;HPM_P1;HPM_P2
2021/06/13 00:01:09;;;;;;;;;0.00;0.00;;;;;;;;5076144;28;8778;-42
2021/06/13 00:03:35;;;;;;;;;0.00;0.00;;;;;;;;5082132;28;8774;-42
2021/06/13 00:06:00;;;;;;;;;0.00;0.00;;;;;;;;5096677;28;8815;-42
2021/06/13 00:08:25;;;;;;;;;0.00;0.00;;;;;;;;5083845;28;8890;-42
2021/06/13 00:10:50;;;;;;;;;0.00;0.00;;;;;;;;5092060;28;8765;-42
2021/06/13 00:13:16;;;;;;;;;0.00;0.00;;;;;;;;5091787;28;8734;-42
2021/06/13 00:15:41;;;;;;;;;0.00;0.00;;;;;;;;5081567;28;8782;-42
2021/06/13 00:18:06;;;;;;;;;0.00;0.00;;;;;;;;5078369;28;8822;-42
2021/06/13 00:20:32;;;;;;;;;0.00;0.00;;;;;;;;5071094;28;8756;-42
2021/06/13 00:22:57;;;;;;;;;0.00;0.00;;;;;;;;5077032;28;8785;-42
2021/06/13 00:25:22;;;;;;;;;0.00;0.00;;;;;;;;5083550;28;8774;-42
2021/06/13 00:27:48;;;;;;;;;0.00;0.00;;;;;;;;5079539;28;8766;-41
2021/06/13 00:30:13;;;;;;;;;0.00;0.00;;;;;;;;5082439;28;8920;-42
2021/06/13 00:32:39;;;;;;;;;0.00;0.00;;;;;;;;5096179;27;8770;-42
2021/06/13 00:35:05;;;;;;;;;0.00;0.00;;;;;;;;5103751;28;8801;-42
2021/06/13 00:37:30;;;;;;;;;0.00;0.00;;;;;;;;5095197;28;8764;-42
2021/06/13 00:39:55;;;;;;;;;0.00;0.00;;;;;;;;5083110;28;8795;-40
2021/06/13 00:42:21;;;;;;;;;0.00;0.00;;;;;;;;5081353;28;10741;-41
2021/06/13 00:44:46;;;;;;;;;0.00;0.00;;;;;;;;5085610;28;8810;-42
2021/06/13 00:47:11;;;;;;;;;0.00;0.00;;;;;;;;5084305;28;8801;-42
2021/06/13 00:49:37;;;;;;;;;0.00;0.00;;;;;;;;5083911;28;8779;-41
2021/06/13 00:52:02;;;;;;;;;0.00;0.00;;;;;;;;5084100;28;8765;-42
2021/06/13 00:54:28;;;;;;;;;0.00;0.00;;;;;;;;5070103;28;8796;-41
2021/06/13 00:56:53;;;;;;;;;0.00;0.00;;;;;;;;5098338;27;10135;-41
2021/06/13 00:59:18;;;;;;;;;0.00;0.00;;;;;;;;5099576;28;8836;-41
2021/06/13 01:01:44;;;;;;;;;0.00;0.00;;;;;;;;5102352;27;8796;-42
2021/06/13 01:04:09;;;;;;;;;0.00;0.00;;;;;;;;5092943;28;8800;-42
2021/06/13 01:06:52;;;;;;;;;0.00;0.00;;;;;;;;5085989;28;8798;-42
2021/06/13 01:09:23;;;;;;;;;0.00;0.00;;;;;;;;5095038;27;8794;-42
2021/06/13 01:12:24;;;;;;;;;0.00;0.00;;;;;;;;5086654;28;8782;-42
2021/06/13 01:14:58;;;;;;;;;0.00;0.00;;;;;;;;5051141;28;9521;-41
2021/06/13 01:17:36;;;;;;;;;0.00;0.00;;;;;;;;5092628;28;8937;-41
2021/06/13 01:20:10;;;;;;;;;0.00;0.00;;;;;;;;5102643;27;8770;-42
2021/06/13 01:22:37;;;;;;;;;0.00;0.00;;;;;;;;5103048;28;8741;-42
2021/06/13 01:25:21;;;;;;;;;0.00;0.00;;;;;;;;5095063;28;8735;-41
2021/06/13 01:27:49;;;;;;;;;0.00;0.00;;;;;;;;5083474;28;8785;-42
2021/06/13 01:30:16;;;;;;;;;0.00;0.00;;;;;;;;5080469;28;8849;-41
2021/06/13 01:32:41;;;;;;;;;0.00;0.00;;;;;;;;5083342;28;8900;-42
2021/06/13 01:35:08;;;;;;;;;0.00;0.00;;;;;;;;5094189;27;8912;-42
2021/06/13 01:37:42;;;;;;;;;0.00;0.00;;;;;;;;5105725;28;8785;-42
2021/06/13 01:40:09;;;;;;;;;0.00;0.00;;;;;;;;5103066;27;8760;-42
2021/06/13 01:42:36;;;;;;;;;0.00;0.00;;;;;;;;5096837;28;8814;-42
2021/06/13 01:45:04;;;;;;;;;0.00;0.00;;;;;;;;5100987;28;8785;-42
2021/06/13 01:47:30;;;;;;;;;0.00;0.00;;;;;;;;5102903;28;8882;-41
2021/06/13 01:49:55;;;;;;;;;0.00;0.00;;;;;;;;5089375;28;8791;-42
2021/06/13 01:52:22;;;;;;;;;0.00;0.00;;;;;;;;5080835;28;8776;-42
2021/06/13 01:54:49;;;;;;;;;0.00;0.00;;;;;;;;5080701;28;8790;-41
2021/06/13 01:57:14;;;;;;;;;0.00;0.00;;;;;;;;5082072;28;8776;-42
2021/06/13 01:59:40;;;;;;;;;0.00;0.00;;;;;;;;5081662;28;8925;-41
2021/06/13 02:02:07;;;;;;;;;0.00;0.00;;;;;;;;5096853;28;8741;-41
2021/06/13 02:04:32;;;;;;;;;0.00;0.00;;;;;;;;5100199;27;8766;-41
2021/06/13 02:06:59;;;;;;;;;0.00;0.00;;;;;;;;5103469;28;8878;-42
2021/06/13 02:09:24;;;;;;;;;0.00;0.00;;;;;;;;5100894;27;11495;-41
2021/06/13 02:11:51;;;;;;;;;0.00;0.00;;;;;;;;5082268;28;8797;-42
2021/06/13 02:14:20;;;;;;;;;0.00;0.00;;;;;;;;5082057;28;12166;-42
2021/06/13 02:16:46;;;;;;;;;0.00;0.00;;;;;;;;5084241;28;8818;-42
2021/06/13 02:19:13;;;;;;;;;0.00;0.00;;;;;;;;5081617;28;8746;-41
2021/06/13 02:21:41;;;;;;;;;0.00;0.00;;;;;;;;5086866;28;8805;-42
2021/06/13 02:24:08;;;;;;;;;0.00;0.00;;;;;;;;5083736;28;8858;-42
2021/06/13 02:26:33;;;;;;;;;0.00;0.00;;;;;;;;5096735;28;8798;-42
2021/06/13 02:28:59;;;;;;;;;0.00;0.00;;;;;;;;5104454;27;8786;-42
2021/06/13 02:31:29;;;;;;;;;0.00;0.00;;;;;;;;5095574;28;8797;-42
2021/06/13 02:33:55;;;;;;;;;0.00;0.00;;;;;;;;5105340;27;8785;-42
2021/06/13 02:36:22;;;;;;;;;0.00;0.00;;;;;;;;5101113;27;8817;-42
2021/06/13 02:38:48;;;;;;;;;0.00;0.00;;;;;;;;5098750;28;11393;-42
2021/06/13 02:41:13;;;;;;;;;0.00;0.00;;;;;;;;5098303;27;8814;-41
2021/06/13 02:43:38;;;;;;;;;0.00;0.00;;;;;;;;5104712;27;8768;-42
2021/06/13 02:46:03;;;;;;;;;0.00;0.00;;;;;;;;5100534;27;8760;-42
2021/06/13 02:48:29;;;;;;;;;0.00;0.00;;;;;;;;5103354;28;9571;-42
2021/06/13 02:50:56;;;;;;;;;0.00;0.00;;;;;;;;5102193;27;9605;-42
2021/06/13 02:53:30;;;;;;;;;0.00;0.00;;;;;;;;5104631;27;8768;-42
2021/06/13 02:56:07;;;;;;;;;0.00;0.00;;;;;;;;5084944;28;8776;-41
2021/06/13 02:58:44;;;;;;;;;0.00;0.00;;;;;;;;5085141;28;8768;-42
2021/06/13 03:01:11;;;;;;;;;0.00;0.00;;;;;;;;5082456;28;8781;-41
2021/06/13 03:03:37;;;;;;;;;0.00;0.00;;;;;;;;5102422;28;8772;-42
2021/06/13 03:06:21;;;;;;;;;0.00;0.00;;;;;;;;5100507;27;9595;-42
2021/06/13 03:08:47;;;;;;;;;0.00;0.00;;;;;;;;5096609;28;8915;-42
2021/06/13 03:11:13;;;;;;;;;0.00;0.00;;;;;;;;5097384;27;8869;-42
2021/06/13 03:13:39;;;;;;;;;0.00;0.00;;;;;;;;5096676;28;8826;-42
2021/06/13 03:16:05;;;;;;;;;0.00;0.00;;;;;;;;5092773;28;9501;-41
2021/06/13 03:18:31;;;;;;;;;0.00;0.00;;;;;;;;5110985;27;9780;-42
2021/06/13 03:20:57;;;;;;;;;0.00;0.00;;;;;;;;5098003;27;8890;-42
2021/06/13 03:23:23;;;;;;;;;0.00;0.00;;;;;;;;5087155;27;8778;-41
2021/06/13 03:25:49;;;;;;;;;0.00;0.00;;;;;;;;5078536;28;8786;-41
2021/06/13 03:28:18;;;;;;;;;0.00;0.00;;;;;;;;5084322;28;8764;-41
2021/06/13 03:30:43;;;;;;;;;0.00;0.00;;;;;;;;5093595;28;8800;-42
2021/06/13 03:33:09;;;;;;;;;0.00;0.00;;;;;;;;5076891;28;8837;-41
2021/06/13 03:35:35;;;;;;;;;0.00;0.00;;;;;;;;5073449;28;8786;-41
2021/06/13 03:38:01;;;;;;;;;0.00;0.00;;;;;;;;5080749;28;8952;-41
2021/06/13 03:40:27;;;;;;;;;0.00;0.00;;;;;;;;5084264;28;9556;-41
2021/06/13 03:42:53;;;;;;;;;0.00;0.00;;;;;;;;5096882;27;8788;-41
2021/06/13 03:45:20;;;;;;;;;0.00;0.00;;;;;;;;5100572;27;8791;-41
2021/06/13 03:47:45;;;;;;;;;0.00;0.00;;;;;;;;5104686;27;9435;-41
2021/06/13 03:50:12;;;;;;;;;0.00;0.00;;;;;;;;5085026;27;8898;-41
2021/06/13 03:52:38;;;;;;;;;0.00;0.00;;;;;;;;5081982;28;8766;-41
2021/06/13 03:55:03;;;;;;;;;0.00;0.00;;;;;;;;5081172;28;8726;-40
2021/06/13 03:57:29;;;;;;;;;0.00;0.00;;;;;;;;5081388;28;8802;-41
2021/06/13 03:59:56;;;;;;;;;0.00;0.00;;;;;;;;5079620;28;8781;-40
2021/06/13 04:02:23;;;;;;;;;0.00;0.00;;;;;;;;5081791;28;8789;-40
2021/06/13 04:04:50;;;;;;;;;0.00;0.00;;;;;;;;5079392;28;8762;-40
2021/06/13 04:07:16;;;;;;;;;0.00;0.00;;;;;;;;5066086;28;8756;-41
2021/06/13 04:09:42;;;;;;;;;0.00;0.00;;;;;;;;5081356;28;8955;-40
2021/06/13 04:12:08;;;;;;;;;0.00;0.00;;;;;;;;5079624;28;8801;-41
2021/06/13 04:14:34;;;;;;;;;0.00;0.00;;;;;;;;5079848;28;9643;-41
2021/06/13 04:16:59;;;;;;;;;0.00;0.00;;;;;;;;5070373;28;8914;-41
2021/06/13 04:19:25;;;;;;;;;0.00;0.00;;;;;;;;5080894;28;8770;-41
2021/06/13 04:21:50;;;;;;;;;0.00;0.00;;;;;;;;5080746;28;8827;-41
2021/06/13 04:24:17;;;;;;;;;0.00;0.00;;;;;;;;5079878;28;8811;-41
2021/06/13 04:26:43;;;;;;;;;0.00;0.00;;;;;;;;5092569;27;8891;-41
2021/06/13 04:29:09;;;;;;;;;0.00;0.00;;;;;;;;5083677;28;8816;-41
2021/06/13 04:31:34;;;;;;;;;0.00;0.00;;;;;;;;5074901;28;8936;-41
2021/06/13 04:33:59;;;;;;;;;0.00;0.00;;;;;;;;5074122;28;8943;-41
2021/06/13 04:36:25;;;;;;;;;0.00;0.00;;;;;;;;5078255;28;8916;-41
2021/06/13 04:38:50;;;;;;;;;0.00;0.00;;;;;;;;5079612;28;8826;-41
2021/06/13 04:41:16;;;;;;;;;0.00;0.00;;;;;;;;5081024;28;8783;-41
2021/06/13 04:43:41;;;;;;;;;0.00;0.00;;;;;;;;5078348;28;8791;-43
2021/06/13 04:46:09;;;;;;;;;0.00;0.00;;;;;;;;5074603;28;9288;-43
2021/06/13 04:48:36;;;;;;;;;0.00;0.00;;;;;;;;5076358;28;8840;-43
2021/06/13 04:51:02;;;;;;;;;0.00;0.00;;;;;;;;5074433;28;10972;-43
2021/06/13 04:53:52;;;;;;;;;0.00;0.00;;;;;;;;5074015;28;8890;-43
2021/06/13 04:56:17;;;;;;;;;0.00;0.00;;;;;;;;5086794;28;8776;-38
2021/06/13 04:58:43;;;;;;;;;0.00;0.00;;;;;;;;5094087;28;8778;-38
2021/06/13 05:01:08;;;;;;;;;0.00;0.00;;;;;;;;5077078;28;8884;-38
2021/06/13 05:03:33;;;;;;;;;0.00;0.00;;;;;;;;5076833;28;8866;-39
2021/06/13 05:05:59;;;;;;;;;0.00;0.00;;;;;;;;5073853;28;8812;-38
2021/06/13 05:08:24;;;;;;;;;0.00;0.00;;;;;;;;5093163;28;8884;-38
2021/06/13 05:10:50;;;;;;;;;0.00;0.00;;;;;;;;5090102;28;8964;-37
2021/06/13 05:13:16;;;;;;;;;0.00;0.00;;;;;;;;5082095;28;8892;-40
2021/06/13 05:15:42;;;;;;;;;0.00;0.00;;;;;;;;5078447;28;8796;-41
2021/06/13 05:18:07;;;;;;;;;0.00;0.00;;;;;;;;5077814;28;8805;-37
2021/06/13 05:20:32;;;;;;;;;0.00;0.00;;;;;;;;5076377;28;8760;-39
2021/06/13 05:22:58;;;;;;;;;0.00;0.00;;;;;;;;5079760;28;8769;-38
2021/06/13 05:25:26;;;;;;;;;0.00;0.00;;;;;;;;5081464;28;8762;-39
2021/06/13 05:27:52;;;;;;;;;0.00;0.00;;;;;;;;5098416;27;8788;-39
2021/06/13 05:30:17;;;;;;;;;0.00;0.00;;;;;;;;5073851;28;8844;-39
2021/06/13 05:32:42;;;;;;;;;0.00;0.00;;;;;;;;5077442;28;8871;-39
2021/06/13 05:35:08;;;;;;;;;0.00;0.00;;;;;;;;5078661;28;8750;-39
2021/06/13 05:37:33;;;;;;;;;0.00;0.00;;;;;;;;5077776;28;8809;-39
2021/06/13 05:39:58;;;;;;;;;0.00;0.00;;;;;;;;5078416;28;8781;-38
2021/06/13 05:42:23;;;;;;;;;0.00;0.00;;;;;;;;5102366;27;8817;-40
2021/06/13 05:44:49;;;;;;;;;0.00;0.00;;;;;;;;5099229;27;8770;-37
2021/06/13 05:47:14;;;;;;;;;0.00;0.00;;;;;;;;5086538;27;10689;-40
2021/06/13 05:49:39;;;;;;;;;0.00;0.00;;;;;;;;5088363;28;8786;-40
2021/06/13 05:52:04;;;;;;;;;0.00;0.00;;;;;;;;5098444;27;8812;-40
2021/06/13 05:54:29;;;;;;;;;0.00;0.00;;;;;;;;5084490;28;8807;-40
2021/06/13 05:56:55;;;;;;;;;0.00;0.00;;;;;;;;5082840;28;8808;-39
2021/06/13 05:59:20;;;;;;;;;0.00;0.00;;;;;;;;5092422;27;8823;-38
2021/06/13 06:01:45;;;;;;;;;0.00;0.00;;;;;;;;5098685;27;8784;-40
2021/06/13 06:04:10;;;;;;;;;0.00;0.00;;;;;;;;5092629;27;8766;-40
2021/06/13 06:06:36;;;;;;;;;0.00;0.00;;;;;;;;5076952;28;8778;-40
2021/06/13 06:09:01;;;;;;;;;0.00;0.00;;;;;;;;5075768;28;8894;-40
2021/06/13 06:11:26;;;;;;;;;0.00;0.00;;;;;;;;5080402;28;8773;-38
2021/06/13 06:13:53;;;;;;;;;0.00;0.00;;;;;;;;5076731;28;8880;-40
2021/06/13 06:16:20;;;;;;;;;0.25;0.25;;;;;;;;5081516;28;8780;-39
2021/06/13 06:18:45;;;;;;;;;0.00;0.00;;;;;;;;5094097;28;8808;-37
2021/06/13 06:21:10;;;;;;;;;0.00;0.00;;;;;;;;5098425;27;8788;-37
2021/06/13 06:23:35;;;;;;;;;0.00;0.00;;;;;;;;5101034;28;9808;-37
2021/06/13 06:26:01;;;;;;;;;0.00;0.00;;;;;;;;5090464;27;8774;-38
2021/06/13 06:28:26;;;;;;;;;0.00;0.00;;;;;;;;5082807;28;8825;-39
2021/06/13 06:30:51;;;;;;;;;0.00;0.00;;;;;;;;5096523;27;8788;-38
2021/06/13 06:33:16;;;;;;;;;0.00;0.00;;;;;;;;5095883;28;8799;-38
2021/06/13 06:35:42;;;;;;;;;0.00;0.00;;;;;;;;5104427;27;9524;-38
2021/06/13 06:38:07;;;;;;;;;0.00;0.00;;;;;;;;5102662;27;8916;-38
2021/06/13 06:40:32;;;;;;;;;0.00;0.00;;;;;;;;5099258;27;8773;-38
2021/06/13 06:42:58;;;;;;;;;0.00;0.00;;;;;;;;5099219;27;9506;-38
2021/06/13 06:45:23;;;;;;;;;0.00;0.00;;;;;;;;5106366;27;8777;-38
2021/06/13 06:47:48;;;;;;;;;0.00;0.00;;;;;;;;5100626;28;8797;-38
2021/06/13 06:50:14;;;;;;;;;0.00;0.00;;;;;;;;5105890;27;8773;-38
2021/06/13 06:52:39;;;;;;;;;0.00;0.00;;;;;;;;5099362;27;8805;-38
2021/06/13 06:55:05;;;;;;;;;0.00;0.00;;;;;;;;5103835;28;8730;-38
2021/06/13 06:57:30;;;;;;;;;0.00;0.00;;;;;;;;5095941;28;8814;-38
2021/06/13 06:59:56;;;;;;;;;0.00;0.00;;;;;;;;5096504;28;8778;-38
2021/06/13 07:02:21;;;;;;;;;0.00;0.00;;;;;;;;5099225;27;11016;-38
2021/06/13 07:04:46;;;;;;;;;0.00;0.00;;;;;;;;5103688;28;9533;-38
2021/06/13 07:07:11;;;;;;;;;0.00;0.00;;;;;;;;5077110;28;8765;-38
2021/06/13 07:09:37;;;;;;;;;0.00;0.00;;;;;;;;5098093;28;8835;-38
2021/06/13 07:12:02;;;;;;;;;0.33;0.00;;;;;;;;5096220;27;8811;-38
2021/06/13 07:14:27;;;;;;;;;0.00;0.00;;;;;;;;5101858;28;8800;-38
2021/06/13 07:16:52;;;;;;;;;0.00;0.00;;;;;;;;5099830;27;8762;-38
2021/06/13 07:19:17;;;;;;;;;0.00;0.00;;;;;;;;5092104;28;8782;-38
2021/06/13 07:21:44;;;;;;;;;0.00;0.00;;;;;;;;5071961;28;8889;-38
2021/06/13 07:24:09;;;;;;;;;0.00;0.00;;;;;;;;5078518;28;8797;-38
2021/06/13 07:26:35;;;;;;;;;0.00;0.00;;;;;;;;5072974;28;9410;-38
2021/06/13 07:29:00;;;;;;;;;0.00;0.00;;;;;;;;5072732;28;8791;-38
2021/06/13 07:31:25;;;;;;;;;0.00;0.00;;;;;;;;5083794;27;8786;-39
2021/06/13 07:33:50;;;;;;;;;0.00;0.00;;;;;;;;5094545;28;8816;-38
2021/06/13 07:36:15;;;;;;;;;0.00;0.00;;;;;;;;5078207;28;8780;-39
2021/06/13 07:38:40;;;;;;;;;0.00;0.00;;;;;;;;5075498;28;8798;-38
2021/06/13 07:41:06;;;;;;;;;0.00;0.00;;;;;;;;5075951;28;8798;-38
2021/06/13 07:43:31;;;;;;;;;0.00;0.00;;;;;;;;5078079;28;8810;-39
2021/06/13 07:45:56;;;;;;;;;0.00;0.00;;;;;;;;5075149;28;8797;-39
2021/06/13 07:48:22;;;;;;;;;0.00;0.00;;;;;;;;5075045;28;10791;-38
2021/06/13 07:50:48;;;;;;;;;0.00;0.00;;;;;;;;5076418;28;8790;-38
2021/06/13 07:53:13;;;;;;;;;0.00;0.00;;;;;;;;5086834;28;8885;-38
2021/06/13 07:55:39;;;;;;;;;0.00;0.00;;;;;;;;5096780;28;8793;-38
2021/06/13 07:58:04;;;;;;;;;0.00;0.00;;;;;;;;5095347;27;8785;-38
2021/06/13 08:00:30;;;;;;;;;1.00;0.00;;;;;;;;5102307;27;8810;-38
2021/06/13 08:02:55;;;;;;;;;0.00;0.00;;;;;;;;5081212;28;8791;-42
2021/06/13 08:05:29;;;;;;;;;0.00;0.00;;;;;;;;5081511;28;8804;-38
2021/06/13 08:07:56;;;;;;;;;0.00;0.00;;;;;;;;5081109;28;9498;-38
2021/06/13 08:10:21;;;;;;;;;0.00;0.00;;;;;;;;5083038;28;8765;-38
2021/06/13 08:12:46;;;;;;;;;1.00;1.00;;;;;;;;5074513;28;8794;-39
2021/06/13 08:15:12;;;;;;;;;0.00;0.00;;;;;;;;5073150;28;8781;-38
2021/06/13 08:17:37;;;;;;;;;0.00;0.00;;;;;;;;5081033;28;8863;-41
2021/06/13 08:20:05;;;;;;;;;0.00;0.00;;;;;;;;5082473;28;8785;-38
2021/06/13 08:22:31;;;;;;;;;0.75;0.75;;;;;;;;5078548;28;8766;-38
2021/06/13 08:24:58;;;;;;;;;0.00;0.00;;;;;;;;5078520;28;8824;-38
2021/06/13 08:27:24;;;;;;;;;0.00;0.00;;;;;;;;5096933;28;8916;-38
2021/06/13 08:29:49;;;;;;;;;0.00;0.00;;;;;;;;5100546;28;8790;-38
2021/06/13 08:32:14;;;;;;;;;0.00;0.00;;;;;;;;5092420;28;8778;-38
2021/06/13 08:34:39;;;;;;;;;0.00;0.00;;;;;;;;5100574;28;8769;-38
2021/06/13 08:37:05;;;;;;;;;0.00;0.00;;;;;;;;5093649;28;8870;-38
2021/06/13 08:39:30;;;;;;;;;0.00;0.00;;;;;;;;5092384;28;8799;-38
2021/06/13 08:41:55;;;;;;;;;0.00;0.00;;;;;;;;5081410;28;8797;-38
2021/06/13 08:44:23;;;;;;;;;0.00;0.00;;;;;;;;5074742;28;8816;-38
2021/06/13 08:46:49;;;;;;;;;0.00;0.00;;;;;;;;5085184;28;8754;-38
2021/06/13 08:49:14;;;;;;;;;0.00;0.00;;;;;;;;5089334;28;8827;-38
2021/06/13 08:51:40;;;;;;;;;0.00;0.00;;;;;;;;5092560;28;8814;-40
2021/06/13 08:54:06;;;;;;;;;0.00;0.00;;;;;;;;5072711;28;9548;-40
2021/06/13 08:56:31;;;;;;;;;0.00;0.00;;;;;;;;5092719;28;8835;-39
2021/06/13 08:58:56;;;;;;;;;0.00;0.00;;;;;;;;5090109;27;8807;-44
2021/06/13 09:01:23;;;;;;;;;0.00;0.00;;;;;;;;5085417;27;8847;-45
2021/06/13 09:03:48;;;;;;;;;0.00;0.00;;;;;;;;5073682;28;8832;-44
2021/06/13 09:06:13;;;;;;;;;0.00;0.00;;;;;;;;5075408;28;8788;-44
2021/06/13 09:08:39;;;;;;;;;0.00;0.00;;;;;;;;5092040;27;9560;-43
2021/06/13 09:11:06;;;;;;;;;0.00;0.00;;;;;;;;5091536;28;9444;-44
2021/06/13 09:13:32;;;;;;;;;0.00;0.00;;;;;;;;5092650;28;8884;-43
2021/06/13 09:16:00;;;;;;;;;0.00;0.00;;;;;;;;5076031;28;8822;-44
2021/06/13 09:18:31;;;;;;;;;0.00;0.00;;;;;;;;5076804;28;10050;-44
2021/06/13 09:20:56;;;;;;;;;0.00;0.00;;;;;;;;5091816;28;8840;-45
2021/06/13 09:23:22;;;;;;;;;0.00;0.00;;;;;;;;5094061;28;8791;-44
2021/06/13 09:25:55;;;;;;;;;0.00;0.00;;;;;;;;5093542;28;8757;-44
2021/06/13 09:28:22;;;;;;;;;0.25;0.25;;;;;;;;5098940;27;8832;-44
2021/06/13 09:30:51;;;;;;;;;0.00;0.00;;;;;;;;5092093;28;9582;-45
2021/06/13 09:33:16;;;;;;;;;0.00;0.00;;;;;;;;5096396;27;8803;-45
2021/06/13 09:35:42;;;;;;;;;0.00;0.00;;;;;;;;5093704;28;8847;-45
2021/06/13 09:38:15;;;;;;;;;0.25;0.00;;;;;;;;5094563;27;8771;-42
2021/06/13 09:40:46;;;;;;;;;0.00;0.00;;;;;;;;5091599;28;8800;-43
2021/06/13 09:43:16;;;;;;;;;0.50;0.50;;;;;;;;5095191;27;8760;-43
2021/06/13 09:45:54;;;;;;;;;1.50;1.00;;;;;;;;5098069;27;8784;-46
2021/06/13 09:48:20;;;;;;;;;0.75;0.75;;;;;;;;5100742;27;8773;-47
2021/06/13 09:50:50;;;;;;;;;0.33;0.00;;;;;;;;5091938;27;8784;-46
2021/06/13 09:53:26;;;;;;;;;0.50;0.50;;;;;;;;5092070;28;8762;-39
2021/06/13 09:56:02;;;;;;;;;0.50;0.50;;;;;;;;5092081;28;8850;-40
2021/06/13 09:58:28;;;;;;;;;0.25;0.25;;;;;;;;5093091;27;8786;-41
2021/06/13 10:00:53;;;;;;;;;1.50;0.50;;;;;;;;5094236;27;8803;-41
2021/06/13 10:03:20;;;;;;;;;1.33;0.33;;;;;;;;5093094;28;8894;-42
2021/06/13 10:05:53;;;;;;;;;0.75;0.25;;;;;;;;5090910;27;8803;-41
2021/06/13 10:08:19;;;;;;;;;0.50;0.50;;;;;;;;5090873;28;8810;-50
2021/06/13 10:10:44;;;;;;;;;0.33;0.33;;;;;;;;5094403;27;9510;-43
2021/06/13 10:13:09;;;;;;;;;0.33;0.33;;;;;;;;5092998;28;8763;-42
2021/06/13 10:15:35;;;;;;;;;1.00;1.00;;;;;;;;5094058;27;9533;-45
2021/06/13 10:18:10;;;;;;;;;1.33;0.33;;;;;;;;5091104;28;8905;-44
2021/06/13 10:20:36;;;;;;;;;2.00;1.00;;;;;;;;5092788;28;8916;-42
2021/06/13 10:23:01;;;;;;;;;0.33;0.33;;;;;;;;5091487;28;8926;-45
2021/06/13 10:25:26;;;;;;;;;0.00;0.00;;;;;;;;5077383;28;8796;-42
2021/06/13 10:27:51;;;;;;;;;0.00;0.00;;;;;;;;5093448;28;8811;-42
2021/06/13 10:30:17;;;;;;;;;1.00;1.00;;;;;;;;5095316;27;8806;-41
2021/06/13 10:32:42;;;;;;;;;0.67;0.67;;;;;;;;5092079;28;9920;-42
2021/06/13 10:35:08;;;;;;;;;0.67;0.67;;;;;;;;5092976;27;8792;-44
2021/06/13 10:37:33;;;;;;;;;1.33;1.33;;;;;;;;5095443;28;8777;-43
2021/06/13 10:39:59;;;;;;;;;0.00;0.00;;;;;;;;5094215;28;8799;-43
2021/06/13 10:42:24;;;;;;;;;0.67;0.67;;;;;;;;5097314;27;8817;-43
2021/06/13 10:44:51;;;;;;;;;0.67;0.67;;;;;;;;5098019;27;10038;-46
2021/06/13 10:47:17;;;;;;;;;0.00;0.00;;;;;;;;5093726;28;8757;-46
2021/06/13 10:49:46;;;;;;;;;1.00;1.00;;;;;;;;5087443;28;8817;-47
2021/06/13 10:52:14;;;;;;;;;0.00;0.00;;;;;;;;5072557;28;8768;-45
2021/06/13 10:54:39;;;;;;;;;1.00;1.00;;;;;;;;5077122;28;8835;-46
2021/06/13 10:57:04;;;;;;;;;1.67;1.67;;;;;;;;5070388;28;8809;-46
2021/06/13 10:59:34;;;;;;;;;0.67;0.67;;;;;;;;5076366;28;8770;-48
2021/06/13 11:02:10;;;;;;;;;1.75;1.75;;;;;;;;5078071;28;8770;-47
2021/06/13 11:04:43;;;;;;;;;1.00;0.75;;;;;;;;5075464;28;8804;-47
2021/06/13 11:07:08;;;;;;;;;0.00;0.00;;;;;;;;5069179;28;8771;-46
2021/06/13 11:09:33;;;;;;;;;1.00;1.00;;;;;;;;5078672;28;8801;-46
2021/06/13 11:11:58;;;;;;;;;2.33;1.67;;;;;;;;5088975;28;8884;-49
2021/06/13 11:14:24;;;;;;;;;2.00;2.00;;;;;;;;5095840;28;8776;-48
2021/06/13 11:16:50;;;;;;;;;1.00;1.00;;;;;;;;5090390;28;8785;-45
2021/06/13 11:19:29;;;;;;;;;1.33;0.67;;;;;;;;5089736;28;8853;-49
2021/06/13 11:22:13;;;;;;;;;2.00;1.50;;;;;;;;4965046;28;8825;-50
2021/06/13 11:24:43;;;;;;;;;3.75;1.50;;;;;;;;5089869;27;8894;-47
2021/06/13 11:27:08;;;;;;;;;2.50;2.00;;;;;;;;5091691;28;8918;-48
2021/06/13 11:29:49;;;;;;;;;2.00;2.00;;;;;;;;5093893;28;8860;-49
2021/06/13 11:32:14;;;;;;;;;1.00;1.00;;;;;;;;5071978;28;8834;-47
2021/06/13 11:34:47;;;;;;;;;1.00;1.00;;;;;;;;5098160;27;8951;-43
2021/06/13 11:37:21;;;;;;;;;1.00;1.00;;;;;;;;5069926;27;8873;-43
2021/06/13 11:39:53;;;;;;;;;2.00;1.00;;;;;;;;5081158;28;8871;-45
2021/06/13 11:42:19;;;;;;;;;1.50;1.50;;;;;;;;5092557;28;8818;-44
2021/06/13 11:44:45;;;;;;;;;1.00;1.00;;;;;;;;5092976;27;8790;-44
2021/06/13 11:47:21;;;;;;;;;0.67;0.67;;;;;;;;5090443;28;8806;-44
2021/06/13 11:49:47;;;;;;;;;1.50;1.50;;;;;;;;5094756;27;8808;-46
2021/06/13 11:52:13;;;;;;;;;1.50;1.25;;;;;;;;5082195;28;8783;-45
2021/06/13 11:54:39;;;;;;;;;0.67;0.67;;;;;;;;5075339;28;8784;-45
2021/06/13 11:57:04;;;;;;;;;0.00;0.00;;;;;;;;5074945;28;8788;-50
2021/06/13 11:59:30;;;;;;;;;0.67;0.67;;;;;;;;5073664;28;8804;-48
2021/06/13 12:02:04;;;;;;;;;0.67;0.67;;;;;;;;5081318;28;8824;-48
2021/06/13 12:04:30;;;;;;;;;0.75;0.75;;;;;;;;5092167;28;9022;-48
2021/06/13 12:06:56;;;;;;;;;2.00;1.00;;;;;;;;5088726;28;8892;-47
2021/06/13 12:09:22;;;;;;;;;0.75;0.75;;;;;;;;5096252;28;8895;-46
2021/06/13 12:11:54;;;;;;;;;1.50;1.00;;;;;;;;5074969;28;8761;-50
2021/06/13 12:14:19;;;;;;;;;1.75;1.00;;;;;;;;5071446;28;8746;-45
2021/06/13 12:16:45;;;;;;;;;1.00;1.00;;;;;;;;5075841;28;8803;-45
2021/06/13 12:19:10;;;;;;;;;1.33;1.33;;;;;;;;5072980;28;8787;-48
2021/06/13 12:21:36;;;;;;;;;2.00;2.00;;;;;;;;5070117;28;8800;-46
2021/06/13 12:29:39;;;;;;;;;1.00;1.00;;;;;;;;5101976;28;8812;-48
2021/06/13 12:32:12;;;;;;;;;1.00;1.00;;;;;;;;5094965;28;8891;-46
2021/06/13 12:34:37;;;;;;;;;0.25;0.25;;;;;;;;5087721;28;8773;-45
2021/06/13 12:37:03;;;;;;;;;1.00;1.00;;;;;;;;5075459;28;8877;-46
2021/06/13 12:39:29;;;;;;;;;1.33;1.33;;;;;;;;5074845;28;8813;-46
2021/06/13 12:42:15;;;;;;;;;0.00;0.00;;;;;;;;5073955;28;8813;-44
2021/06/13 12:44:40;;;;;;;;;2.25;1.00;;;;;;;;5091284;28;8798;-47
2021/06/13 12:47:07;;;;;;;;;1.00;1.00;;;;;;;;5082025;27;8796;-47
2021/06/13 12:49:39;;;;;;;;;0.00;0.00;;;;;;;;5083529;28;8783;-46
2021/06/13 12:52:12;;;;;;;;;1.00;1.00;;;;;;;;5089215;27;8786;-48
2021/06/13 12:54:37;;;;;;;;;0.25;0.25;;;;;;;;5071565;28;8780;-48
2021/06/13 12:57:03;;;;;;;;;1.67;0.67;;;;;;;;5100957;27;8853;-47
2021/06/13 12:59:28;;;;;;;;;0.00;0.00;;;;;;;;5076048;28;8792;-51
2021/06/13 13:01:53;;;;;;;;;0.33;0.33;;;;;;;;5089837;27;8774;-49
2021/06/13 13:04:37;;;;;;;;;1.00;1.00;;;;;;;;5095089;28;8798;-50
2021/06/13 13:07:03;;;;;;;;;0.75;0.75;;;;;;;;5097780;27;8773;-48
2021/06/13 13:09:28;;;;;;;;;1.00;0.00;;;;;;;;5091278;28;8821;-49
2021/06/13 13:11:53;;;;;;;;;0.00;0.00;;;;;;;;5095589;28;8833;-48
2021/06/13 13:14:19;;;;;;;;;0.00;0.00;;;;;;;;5097075;27;8820;-48
2021/06/13 13:16:44;;;;;;;;;1.00;1.00;;;;;;;;5101788;27;8985;-51
2021/06/13 13:19:10;;;;;;;;;0.00;0.00;;;;;;;;5092104;28;8900;-49
2021/06/13 13:21:38;;;;;;;;;2.00;2.00;;;;;;;;5097426;28;8793;-47
2021/06/13 13:24:04;;;;;;;;;1.00;1.00;;;;;;;;5100345;28;8874;-47
2021/06/13 13:26:29;;;;;;;;;0.00;0.00;;;;;;;;5097735;27;8924;-48
2021/06/13 13:28:55;;;;;;;;;0.67;0.67;;;;;;;;5090265;28;12140;-47
2021/06/13 13:31:22;;;;;;;;;2.00;1.00;;;;;;;;5083465;28;8819;-50
2021/06/13 13:34:05;;;;;;;;;0.00;0.00;;;;;;;;5078543;28;10070;-50
2021/06/13 13:36:40;;;;;;;;;0.00;0.00;;;;;;;;5070970;28;8844;-50
2021/06/13 13:39:13;;;;;;;;;1.00;1.00;;;;;;;;5101139;27;8785;-54
2021/06/13 13:41:40;;;;;;;;;0.00;0.00;;;;;;;;5043842;28;8773;-53
2021/06/13 13:44:07;;;;;;;;;0.00;0.00;;;;;;;;5093800;28;8767;-50
2021/06/13 13:46:33;;;;;;;;;0.50;0.50;;;;;;;;5093551;28;9508;-62
2021/06/13 13:49:00;;;;;;;;;0.25;0.25;;;;;;;;5101090;27;8829;-50
2021/06/13 13:51:26;;;;;;;;;0.00;0.00;;;;;;;;5093263;27;8818;-51
2021/06/13 13:53:53;;;;;;;;;1.00;1.00;;;;;;;;5097602;27;8870;-54
2021/06/13 13:56:22;;;;;;;;;1.50;1.00;;;;;;;;5092373;28;8766;-46
2021/06/13 13:58:51;;;;;;;;;0.00;0.00;;;;;;;;5096066;27;8756;-57
2021/06/13 14:01:17;;;;;;;;;0.50;0.50;;;;;;;;5097606;27;8824;-44
2021/06/13 14:03:42;;;;;;;;;1.00;0.00;;;;;;;;5098668;27;8816;-44
2021/06/13 14:06:07;;;;;;;;;1.00;1.00;;;;;;;;5078833;28;8764;-44
2021/06/13 14:08:43;;;;;;;;;1.00;0.33;;;;;;;;5073952;28;8781;-45
2021/06/13 14:11:09;;;;;;;;;1.00;1.00;;;;;;;;5074675;28;8794;-45
2021/06/13 14:13:35;;;;;;;;;1.00;0.50;;;;;;;;5076574;28;9546;-45
2021/06/13 14:16:00;;;;;;;;;1.00;1.00;;;;;;;;5076086;28;8818;-42
2021/06/13 14:18:25;;;;;;;;;0.67;0.67;;;;;;;;5076596;28;8920;-45
2021/06/13 14:20:50;;;;;;;;;0.00;0.00;;;;;;;;5077827;28;8778;-44
2021/06/13 14:23:16;;;;;;;;;1.00;1.00;;;;;;;;5076380;28;8898;-45
2021/06/13 14:25:41;;;;;;;;;0.00;0.00;;;;;;;;5078748;28;8782;-47
2021/06/13 14:28:08;;;;;;;;;0.00;0.00;;;;;;;;5070017;28;8788;-49
2021/06/13 14:30:35;;;;;;;;;0.75;0.75;;;;;;;;5073292;28;8814;-44
2021/06/13 14:33:00;;;;;;;;;0.00;0.00;;;;;;;;5086814;28;8901;-47
2021/06/13 14:35:25;;;;;;;;;0.00;0.00;;;;;;;;5083031;28;8788;-46
2021/06/13 14:37:51;;;;;;;;;1.00;1.00;;;;;;;;5072663;28;8859;-43
2021/06/13 14:40:16;;;;;;;;;1.67;1.67;;;;;;;;5080714;28;8966;-43
2021/06/13 14:42:42;;;;;;;;;0.33;0.33;;;;;;;;5094046;28;8872;-43
2021/06/13 14:45:09;;;;;;;;;0.75;0.75;;;;;;;;5093307;28;8761;-42
2021/06/13 14:47:34;;;;;;;;;1.00;1.00;;;;;;;;5092526;28;8780;-42
2021/06/13 14:49:59;;;;;;;;;0.00;0.00;;;;;;;;5096748;27;8785;-42
2021/06/13 14:52:25;;;;;;;;;1.00;1.00;;;;;;;;5092305;28;8783;-42
2021/06/13 14:54:50;;;;;;;;;0.67;0.67;;;;;;;;5098328;27;8804;-43
2021/06/13 14:57:15;;;;;;;;;0.00;0.00;;;;;;;;5093747;27;9422;-42
2021/06/13 14:59:40;;;;;;;;;0.00;0.00;;;;;;;;5097766;27;8792;-42